Time;durP1;ratioP1;P1;durP2;ratioP2;P2;SDS_P1;SDS_P2;PMS_P1;PMS_P2;Temp;Humidity;BMP_temperature;BMP_pressure;BME280_temperature;BME280_humidity;BME280_pressure;Samples;Min_cycle;Max_cycle;Signal;HPM_P1;HPM_P2
2024/01/29 00:02:05;;;;;;;27.67;16.13;;;1.50;99.90;;;;;;5009838;28;20205;-66
2024/01/29 00:04:32;;;;;;;42.83;17.53;;;1.40;99.90;;;;;;5011320;28;20200;-67
2024/01/29 00:07:00;;;;;;;47.60;16.70;;;1.20;99.90;;;;;;5019420;28;20225;-66
2024/01/29 00:09:29;;;;;;;25.60;16.10;;;1.20;99.90;;;;;;5010532;28;20203;-67
2024/01/29 00:11:56;;;;;;;29.47;16.03;;;1.20;99.90;;;;;;5010756;28;20291;-67
2024/01/29 00:14:23;;;;;;;22.60;14.33;;;1.20;99.90;;;;;;5018646;28;20251;-66
2024/01/29 00:16:51;;;;;;;79.80;19.37;;;1.20;99.90;;;;;;5011494;28;20236;-66
2024/01/29 00:19:18;;;;;;;24.87;15.40;;;1.10;99.90;;;;;;5011254;28;20238;-66
2024/01/29 00:21:45;;;;;;;49.27;18.00;;;1.10;99.90;;;;;;5005410;28;20204;-66
2024/01/29 00:24:12;;;;;;;31.20;16.97;;;1.10;99.90;;;;;;5015381;28;20206;-67
2024/01/29 00:26:40;;;;;;;24.87;15.17;;;0.90;99.90;;;;;;5013513;28;20860;-66
2024/01/29 00:29:08;;;;;;;28.00;16.50;;;0.80;99.90;;;;;;5014418;28;20630;-67
2024/01/29 00:31:35;;;;;;;27.87;16.70;;;0.80;99.90;;;;;;5012410;28;20209;-66
2024/01/29 00:34:03;;;;;;;33.10;16.03;;;0.80;99.90;;;;;;5015174;28;20697;-66
2024/01/29 00:36:30;;;;;;;30.03;17.30;;;0.90;99.90;;;;;;5013954;28;20209;-66
2024/01/29 00:38:57;;;;;;;43.67;17.43;;;1.00;99.90;;;;;;5014058;28;20256;-67
2024/01/29 00:41:25;;;;;;;32.13;17.50;;;1.00;99.90;;;;;;5014147;28;20208;-67
2024/01/29 00:43:53;;;;;;;33.40;16.93;;;1.10;99.90;;;;;;5015051;28;20201;-68
2024/01/29 00:46:21;;;;;;;27.23;16.73;;;1.20;99.90;;;;;;5013973;28;20220;-67
2024/01/29 00:48:48;;;;;;;48.33;17.23;;;1.10;99.90;;;;;;5012232;28;20679;-66
2024/01/29 00:51:15;;;;;;;25.47;15.00;;;1.00;99.90;;;;;;5009082;28;20214;-66
2024/01/29 00:53:42;;;;;;;27.10;16.13;;;0.90;99.90;;;;;;5016424;28;20675;-66
2024/01/29 00:56:09;;;;;;;30.10;17.13;;;1.20;99.90;;;;;;5019654;28;20262;-66
2024/01/29 00:58:36;;;;;;;27.00;15.80;;;1.00;99.90;;;;;;5014725;28;20283;-66
2024/01/29 01:01:04;;;;;;;33.47;16.53;;;1.10;99.90;;;;;;5019814;28;20758;-67
2024/01/29 01:03:32;;;;;;;31.77;18.37;;;1.10;99.90;;;;;;5023670;28;20201;-67
2024/01/29 01:05:59;;;;;;;32.03;17.37;;;1.70;99.90;;;;;;5028020;28;20195;-66
2024/01/29 01:08:26;;;;;;;49.60;17.07;;;1.10;99.90;;;;;;5018423;28;20707;-66
2024/01/29 01:10:53;;;;;;;30.27;15.87;;;1.10;99.90;;;;;;5014729;28;20332;-66
2024/01/29 01:13:20;;;;;;;27.70;14.83;;;1.00;99.90;;;;;;5012991;28;20204;-66
2024/01/29 01:15:47;;;;;;;37.13;15.37;;;1.10;99.90;;;;;;5026092;28;20227;-66
2024/01/29 01:18:15;;;;;;;21.90;13.43;;;1.00;99.90;;;;;;5034173;28;20248;-66
2024/01/29 01:20:42;;;;;;;31.20;15.60;;;0.90;99.90;;;;;;5018119;28;20203;-66
2024/01/29 01:23:09;;;;;;;23.00;13.83;;;;;;;;;;5018264;28;20201;-66
2024/01/29 01:25:36;;;;;;;21.07;13.83;;;0.90;99.90;;;;;;5025384;28;20259;-67
2024/01/29 01:28:04;;;;;;;23.97;13.97;;;0.90;99.90;;;;;;5023264;28;20645;-66
2024/01/29 01:30:31;;;;;;;25.03;15.23;;;;;;;;;;5014651;28;20200;-66
2024/01/29 01:32:58;;;;;;;31.40;14.73;;;0.90;99.90;;;;;;5013054;28;20209;-67
2024/01/29 01:35:27;;;;;;;19.13;12.60;;;1.00;99.90;;;;;;5014516;28;20211;-66
2024/01/29 01:37:54;;;;;;;19.73;13.33;;;1.10;99.90;;;;;;5017799;28;20259;-66
2024/01/29 01:40:21;;;;;;;23.40;12.87;;;1.10;99.90;;;;;;5025866;28;20254;-66
2024/01/29 01:42:48;;;;;;;24.43;14.73;;;1.00;99.90;;;;;;5033150;28;20209;-67
2024/01/29 01:45:15;;;;;;;23.63;13.93;;;0.90;99.90;;;;;;5020998;28;20205;-67
2024/01/29 01:47:42;;;;;;;20.63;12.67;;;0.90;99.90;;;;;;5014084;28;20233;-66
2024/01/29 01:50:10;;;;;;;24.43;15.03;;;0.70;99.90;;;;;;5013308;28;20204;-67
2024/01/29 01:52:40;;;;;;;20.87;13.20;;;0.80;99.90;;;;;;5023568;28;20238;-66
2024/01/29 01:55:08;;;;;;;21.13;13.27;;;;;;;;;;5034010;28;20200;-66
2024/01/29 01:57:36;;;;;;;36.17;14.77;;;0.80;99.90;;;;;;5033933;28;20227;-66
2024/01/29 02:00:04;;;;;;;21.33;13.47;;;1.00;99.90;;;;;;5033661;28;20219;-66
2024/01/29 02:02:31;;;;;;;28.57;13.13;;;0.80;99.90;;;;;;5020263;28;20255;-67
2024/01/29 02:04:58;;;;;;;23.33;13.53;;;0.80;99.90;;;;;;5030028;28;20201;-67
2024/01/29 02:07:25;;;;;;;77.23;15.07;;;0.80;99.90;;;;;;5033978;28;20226;-67
2024/01/29 02:09:54;;;;;;;18.23;12.10;;;0.90;99.90;;;;;;5034503;28;20211;-67
2024/01/29 02:12:22;;;;;;;24.00;14.23;;;0.80;99.90;;;;;;5033704;28;20201;-66
2024/01/29 02:14:51;;;;;;;24.13;13.80;;;0.70;99.90;;;;;;5024983;28;20202;-67
2024/01/29 02:17:20;;;;;;;24.77;13.57;;;0.60;99.90;;;;;;5021804;28;20314;-67
2024/01/29 02:19:47;;;;;;;18.77;12.20;;;0.80;99.90;;;;;;4994875;28;20229;-66
2024/01/29 02:22:18;;;;;;;18.30;13.40;;;0.80;99.90;;;;;;5000778;28;20211;-67
2024/01/29 02:24:46;;;;;;;20.33;13.60;;;0.80;99.90;;;;;;5008757;28;20208;-67
2024/01/29 02:27:17;;;;;;;21.70;13.23;;;0.90;99.90;;;;;;5011637;28;20780;-66
2024/01/29 02:29:44;;;;;;;29.90;15.00;;;0.90;99.90;;;;;;5021366;28;20198;-66
2024/01/29 02:32:11;;;;;;;30.67;14.70;;;0.90;99.90;;;;;;5011110;28;20204;-67
2024/01/29 02:34:38;;;;;;;59.17;15.00;;;0.90;99.90;;;;;;5013440;28;20212;-66
2024/01/29 02:37:05;;;;;;;22.10;13.50;;;0.80;99.90;;;;;;5013442;28;20223;-66
2024/01/29 02:39:32;;;;;;;32.60;13.63;;;0.70;99.90;;;;;;5012637;28;20227;-66
2024/01/29 02:42:00;;;;;;;38.40;14.47;;;0.70;99.90;;;;;;5019814;28;20732;-67
2024/01/29 02:44:28;;;;;;;20.27;14.07;;;0.70;99.90;;;;;;5015317;28;20204;-66
2024/01/29 02:46:57;;;;;;;28.23;14.00;;;0.90;99.90;;;;;;5012549;28;20269;-66
2024/01/29 02:49:24;;;;;;;18.70;12.87;;;0.90;99.90;;;;;;5005032;28;20314;-67
2024/01/29 02:51:51;;;;;;;22.73;14.07;;;0.80;99.90;;;;;;5031893;28;20250;-66
2024/01/29 02:54:18;;;;;;;39.50;14.20;;;0.90;99.90;;;;;;5020397;28;20264;-66
2024/01/29 02:56:45;;;;;;;41.83;14.53;;;0.80;99.90;;;;;;5023960;28;20223;-66
2024/01/29 03:02:35;;;;;;;22.20;12.43;;;;;;;;;;5031985;28;20217;-66
2024/01/29 03:05:02;;;;;;;21.13;12.90;;;0.50;99.90;;;;;;5026628;28;20282;-66
2024/01/29 03:07:29;;;;;;;26.77;12.13;;;0.50;99.90;;;;;;5019705;28;20228;-67
2024/01/29 03:09:56;;;;;;;23.90;12.90;;;0.60;99.90;;;;;;5024758;28;20201;-66
2024/01/29 03:12:23;;;;;;;30.83;14.97;;;0.50;99.90;;;;;;5000454;28;20206;-66
2024/01/29 03:14:50;;;;;;;23.17;13.17;;;0.50;99.90;;;;;;5017697;28;20205;-67
2024/01/29 03:17:17;;;;;;;41.80;13.87;;;0.50;99.90;;;;;;5011435;28;20296;-66
2024/01/29 03:19:45;;;;;;;24.83;14.50;;;0.60;99.90;;;;;;5023616;28;20211;-66
2024/01/29 03:22:12;;;;;;;71.90;16.93;;;0.40;99.90;;;;;;5031587;28;20200;-66
2024/01/29 03:24:39;;;;;;;29.37;13.53;;;0.40;99.90;;;;;;5032137;28;20199;-66
2024/01/29 03:27:06;;;;;;;59.87;16.40;;;0.40;99.90;;;;;;5026210;28;20710;-67
2024/01/29 03:29:33;;;;;;;40.70;15.80;;;0.40;99.90;;;;;;5014337;28;20246;-66
2024/01/29 03:32:00;;;;;;;27.40;14.23;;;0.40;99.90;;;;;;5019993;28;20760;-66
2024/01/29 03:34:27;;;;;;;33.70;15.27;;;0.30;99.90;;;;;;5012345;28;20541;-66
2024/01/29 03:36:55;;;;;;;24.87;14.13;;;0.40;99.90;;;;;;5012601;28;20781;-66
2024/01/29 03:39:22;;;;;;;31.63;13.90;;;0.50;99.90;;;;;;5010403;28;20219;-67
2024/01/29 03:41:49;;;;;;;20.03;12.80;;;0.40;99.90;;;;;;5011529;28;20201;-66
2024/01/29 03:44:16;;;;;;;61.80;15.27;;;0.40;99.90;;;;;;5011963;28;20207;-66
2024/01/29 03:46:44;;;;;;;25.43;14.47;;;0.30;99.90;;;;;;5011666;28;20221;-66
2024/01/29 03:49:11;;;;;;;37.87;15.53;;;0.40;99.90;;;;;;5011881;28;20277;-66
2024/01/29 03:51:38;;;;;;;49.13;15.37;;;0.40;99.90;;;;;;5011074;28;20210;-66
2024/01/29 03:54:06;;;;;;;22.70;13.50;;;0.30;99.90;;;;;;5019728;28;20204;-67
2024/01/29 03:56:33;;;;;;;28.67;14.03;;;0.30;99.90;;;;;;5028949;28;20256;-67
2024/01/29 03:59:00;;;;;;;37.03;14.43;;;0.30;99.90;;;;;;5031548;28;20221;-66
2024/01/29 04:01:27;;;;;;;23.73;14.70;;;0.30;99.90;;;;;;5026866;28;20192;-66
2024/01/29 04:03:55;;;;;;;20.33;13.57;;;0.30;99.90;;;;;;5010581;28;20202;-66
2024/01/29 04:06:22;;;;;;;28.43;13.23;;;0.40;99.90;;;;;;5018341;28;20205;-67
2024/01/29 04:08:49;;;;;;;29.87;13.03;;;0.50;99.90;;;;;;4992404;28;20615;-67
2024/01/29 04:11:17;;;;;;;29.43;13.87;;;0.40;99.90;;;;;;4992472;28;20206;-67
2024/01/29 04:13:44;;;;;;;21.70;13.93;;;0.10;99.90;;;;;;4991804;28;20257;-67
2024/01/29 04:16:11;;;;;;;33.03;14.00;;;0.20;99.90;;;;;;4992383;28;20204;-67
2024/01/29 04:18:39;;;;;;;25.27;13.50;;;0.40;99.90;;;;;;5015639;28;20220;-67
2024/01/29 04:21:07;;;;;;;20.40;13.63;;;0.40;99.90;;;;;;5025891;28;20282;-67
2024/01/29 04:23:34;;;;;;;34.80;16.07;;;;;;;;;;5030530;28;20203;-67
2024/01/29 04:26:01;;;;;;;36.57;14.80;;;0.60;99.90;;;;;;5013912;28;20267;-67
2024/01/29 04:28:30;;;;;;;23.70;12.63;;;0.30;99.90;;;;;;5012429;28;20228;-67
2024/01/29 04:30:56;;;;;;;21.47;13.60;;;0.20;99.90;;;;;;5013532;28;20200;-67
2024/01/29 04:33:23;;;;;;;19.57;13.90;;;0.30;99.90;;;;;;5019896;28;20598;-66
2024/01/29 04:35:50;;;;;;;25.13;13.80;;;0.30;99.90;;;;;;5023431;28;20251;-66
2024/01/29 04:38:17;;;;;;;21.20;13.97;;;0.40;99.90;;;;;;5011597;28;20225;-67
2024/01/29 04:40:44;;;;;;;21.33;13.77;;;0.40;99.90;;;;;;5011556;28;20220;-66
2024/01/29 04:43:11;;;;;;;18.67;12.70;;;0.40;99.90;;;;;;5015214;28;20254;-67
2024/01/29 04:45:40;;;;;;;20.03;12.30;;;;;;;;;;5020115;28;20251;-66
2024/01/29 04:48:07;;;;;;;20.00;13.00;;;0.30;99.90;;;;;;5014007;28;20348;-67
2024/01/29 04:50:34;;;;;;;18.47;12.93;;;0.50;99.90;;;;;;5011744;28;20250;-67
2024/01/29 04:53:01;;;;;;;17.00;12.10;;;0.30;99.90;;;;;;5021574;28;20653;-67
2024/01/29 04:55:28;;;;;;;27.23;14.13;;;0.30;99.90;;;;;;5024692;28;20677;-67
2024/01/29 04:57:55;;;;;;;23.33;13.80;;;0.40;99.90;;;;;;5017991;28;20218;-67
2024/01/29 05:00:22;;;;;;;20.13;13.27;;;0.20;99.90;;;;;;5019125;28;20730;-67
2024/01/29 05:02:50;;;;;;;15.93;11.03;;;;;;;;;;5007609;28;20204;-67
2024/01/29 05:05:18;;;;;;;25.50;13.17;;;0.40;99.90;;;;;;5013920;28;20203;-67
2024/01/29 05:07:45;;;;;;;21.93;13.97;;;;;;;;;;5014981;28;20283;-67
2024/01/29 05:10:12;;;;;;;44.90;14.67;;;;;;;;;;5020775;28;20205;-67
2024/01/29 05:12:39;;;;;;;38.67;16.17;;;0.30;99.90;;;;;;5021557;28;20206;-67
2024/01/29 05:15:07;;;;;;;29.57;15.30;;;0.30;99.90;;;;;;5025988;28;20661;-67
2024/01/29 05:17:33;;;;;;;21.13;13.80;;;1.20;99.90;;;;;;5032164;28;20229;-67
2024/01/29 05:20:02;;;;;;;25.40;14.03;;;0.30;99.90;;;;;;5004140;28;20231;-66
2024/01/29 05:22:29;;;;;;;30.67;14.67;;;;;;;;;;4994731;28;20279;-67
2024/01/29 05:24:56;;;;;;;22.13;12.27;;;0.40;99.90;;;;;;4996801;28;20767;-67
2024/01/29 05:27:23;;;;;;;21.23;14.07;;;0.40;99.90;;;;;;5017919;28;20271;-67
2024/01/29 05:29:50;;;;;;;17.40;12.33;;;0.40;99.90;;;;;;5005057;28;20213;-67
2024/01/29 05:32:17;;;;;;;28.83;13.97;;;0.40;99.90;;;;;;5005460;28;20281;-67
2024/01/29 05:34:44;;;;;;;27.57;12.70;;;0.30;99.90;;;;;;5012955;28;20205;-67
2024/01/29 05:37:16;;;;;;;20.03;12.37;;;0.30;99.90;;;;;;5009411;28;20610;-67
2024/01/29 05:39:43;;;;;;;20.80;14.23;;;0.30;99.90;;;;;;5014642;28;20226;-67
2024/01/29 05:42:10;;;;;;;26.77;14.37;;;0.20;99.90;;;;;;5021486;28;20212;-67
2024/01/29 05:44:37;;;;;;;21.23;12.40;;;;;;;;;;5014291;28;20264;-67
2024/01/29 05:47:04;;;;;;;23.73;13.93;;;0.30;99.90;;;;;;5009399;28;20272;-67
2024/01/29 05:49:31;;;;;;;22.03;14.80;;;0.70;99.90;;;;;;5014196;28;20204;-67
2024/01/29 05:51:58;;;;;;;22.17;12.73;;;0.50;99.90;;;;;;5012278;28;20206;-67
2024/01/29 05:54:27;;;;;;;27.63;13.37;;;0.40;99.90;;;;;;5010595;28;20262;-67
2024/01/29 05:56:54;;;;;;;21.07;11.27;;;0.50;99.90;;;;;;5013994;28;20224;-67
2024/01/29 05:59:21;;;;;;;21.73;12.57;;;0.40;99.90;;;;;;5013519;28;20235;-67
2024/01/29 06:01:47;;;;;;;21.20;12.83;;;0.30;99.90;;;;;;5013061;28;20241;-67
2024/01/29 06:04:14;;;;;;;21.37;12.60;;;0.30;99.90;;;;;;5022057;28;20264;-67
2024/01/29 06:06:43;;;;;;;23.50;12.53;;;0.20;99.90;;;;;;5012948;28;20234;-67
2024/01/29 06:09:10;;;;;;;18.93;12.03;;;0.20;99.90;;;;;;5010265;28;20591;-67
2024/01/29 06:11:38;;;;;;;28.30;15.43;;;0.20;99.90;;;;;;5012443;28;20205;-67
2024/01/29 06:14:06;;;;;;;22.70;15.37;;;0.30;99.90;;;;;;5013576;28;20271;-67
2024/01/29 06:16:33;;;;;;;22.10;15.07;;;0.40;99.90;;;;;;5022897;28;20665;-67
2024/01/29 06:19:00;;;;;;;19.77;12.67;;;0.30;99.90;;;;;;5019682;28;20240;-67
2024/01/29 06:21:27;;;;;;;20.30;13.27;;;0.30;99.90;;;;;;5012345;28;20267;-67
2024/01/29 06:23:54;;;;;;;29.73;13.63;;;0.10;99.90;;;;;;5012923;28;20202;-67
2024/01/29 06:26:21;;;;;;;17.73;11.87;;;0.30;99.90;;;;;;5010648;28;20255;-67
2024/01/29 06:28:50;;;;;;;18.20;12.13;;;0.20;99.90;;;;;;5015635;28;20627;-67
2024/01/29 06:31:17;;;;;;;17.67;11.93;;;0.10;99.90;;;;;;5014951;28;20201;-67
2024/01/29 06:33:44;;;;;;;20.63;13.47;;;0.00;99.90;;;;;;5006816;28;20205;-67
2024/01/29 06:36:16;;;;;;;36.47;15.40;;;0.20;99.90;;;;;;5013316;28;20213;-67
2024/01/29 06:38:43;;;;;;;21.93;12.90;;;;;;;;;;5013009;28;20227;-67
2024/01/29 06:41:20;;;;;;;21.47;13.20;;;0.20;99.90;;;;;;5012532;28;20225;-67
2024/01/29 06:43:47;;;;;;;26.73;13.47;;;0.30;99.90;;;;;;5019204;28;20199;-67
2024/01/29 06:46:15;;;;;;;25.47;13.77;;;0.30;99.90;;;;;;5018510;28;20237;-67
2024/01/29 06:48:42;;;;;;;31.93;13.83;;;0.20;99.90;;;;;;5012427;28;20224;-67
2024/01/29 06:51:10;;;;;;;21.53;12.50;;;0.10;99.90;;;;;;5009230;28;20657;-67
2024/01/29 06:53:37;;;;;;;20.60;12.47;;;0.10;99.90;;;;;;5011388;28;20238;-67
2024/01/29 06:56:05;;;;;;;20.20;13.77;;;0.10;99.90;;;;;;5012807;28;20204;-67
2024/01/29 06:58:32;;;;;;;21.00;13.30;;;0.10;99.90;;;;;;5012452;28;20225;-67
2024/01/29 07:01:00;;;;;;;26.13;13.07;;;0.20;99.90;;;;;;5012585;28;20274;-67
2024/01/29 07:03:28;;;;;;;27.43;13.73;;;0.10;99.90;;;;;;5011760;28;20208;-67
2024/01/29 07:05:55;;;;;;;22.57;13.10;;;0.10;99.90;;;;;;5011493;28;20205;-67
2024/01/29 07:08:22;;;;;;;22.27;13.80;;;0.00;99.90;;;;;;5012787;28;20281;-67
2024/01/29 07:10:49;;;;;;;20.37;14.13;;;0.10;99.90;;;;;;5009541;28;20198;-67
2024/01/29 07:13:16;;;;;;;21.27;13.30;;;0.00;99.90;;;;;;5011353;28;20209;-67
2024/01/29 07:15:44;;;;;;;23.47;14.50;;;0.00;99.90;;;;;;5010900;28;20254;-67
2024/01/29 07:18:11;;;;;;;26.03;14.53;;;0.00;99.90;;;;;;5010021;28;20234;-67
2024/01/29 07:20:41;;;;;;;24.60;13.77;;;0.10;99.90;;;;;;5020412;28;20642;-67
2024/01/29 07:23:08;;;;;;;25.63;13.37;;;0.10;99.90;;;;;;5009811;28;20205;-67
2024/01/29 07:25:35;;;;;;;67.57;15.63;;;0.00;99.90;;;;;;5010331;28;20208;-67
2024/01/29 07:28:03;;;;;;;25.60;14.00;;;0.10;99.90;;;;;;5011262;28;20275;-67
2024/01/29 07:30:30;;;;;;;24.07;14.47;;;0.10;99.90;;;;;;5018969;28;20216;-67
2024/01/29 07:32:57;;;;;;;24.00;13.37;;;0.10;99.90;;;;;;5017576;28;20285;-67
2024/01/29 07:35:24;;;;;;;22.87;14.10;;;0.10;99.90;;;;;;5018683;28;20216;-67
2024/01/29 07:37:53;;;;;;;22.60;13.77;;;0.00;99.90;;;;;;5011304;28;20278;-67
2024/01/29 07:40:20;;;;;;;27.13;16.13;;;0.10;99.90;;;;;;5010419;28;20261;-66
2024/01/29 07:42:47;;;;;;;21.37;14.37;;;0.30;99.90;;;;;;5010608;28;20213;-68
2024/01/29 07:45:15;;;;;;;25.43;14.57;;;1.10;99.90;;;;;;5011786;28;20208;-67
2024/01/29 07:47:42;;;;;;;28.80;14.70;;;0.50;99.90;;;;;;5006491;28;20219;-67
2024/01/29 07:50:09;;;;;;;30.23;16.15;;;0.60;99.90;;;;;;5001603;28;20462;-67
2024/01/29 07:52:36;;;;;;;23.33;12.97;;;0.40;99.90;;;;;;5009486;28;20232;-65
2024/01/29 07:55:05;;;;;;;21.80;12.53;;;0.30;99.90;;;;;;5011764;28;20262;-67
2024/01/29 07:57:32;;;;;;;26.43;13.83;;;0.40;99.90;;;;;;5011397;28;20229;-67
2024/01/29 07:59:59;;;;;;;26.52;16.90;;;0.40;99.90;;;;;;5010261;28;20505;-66
2024/01/29 08:02:27;;;;;;;20.50;13.70;;;0.30;99.90;;;;;;5013248;28;20200;-67
2024/01/29 08:04:54;;;;;;;25.70;13.70;;;0.40;99.90;;;;;;5003545;28;20683;-65
2024/01/29 08:07:24;;;;;;;25.17;13.43;;;0.50;99.90;;;;;;5011922;28;20228;-68
2024/01/29 08:09:51;;;;;;;29.63;14.37;;;;;;;;;;5011256;28;20228;-66
2024/01/29 08:12:23;;;;;;;21.43;13.13;;;0.30;99.90;;;;;;5009737;28;20208;-66
2024/01/29 08:14:50;;;;;;;25.80;13.67;;;0.40;99.90;;;;;;5011035;28;20671;-65
2024/01/29 08:17:19;;;;;;;26.40;13.87;;;0.60;99.90;;;;;;5011166;28;20236;-66
2024/01/29 08:20:05;;;;;;;18.13;12.80;;;0.60;99.90;;;;;;5010775;28;20200;-66
2024/01/29 08:22:32;;;;;;;25.23;14.33;;;0.60;99.90;;;;;;5010028;28;20299;-66
2024/01/29 08:24:59;;;;;;;24.23;12.53;;;0.60;99.90;;;;;;5019848;28;20203;-66
2024/01/29 08:27:29;;;;;;;20.43;11.90;;;0.50;99.90;;;;;;5006414;28;20318;-66
2024/01/29 08:29:57;;;;;;;23.30;12.53;;;0.40;99.90;;;;;;5004853;28;20265;-66
2024/01/29 08:32:24;;;;;;;27.37;13.00;;;0.50;99.90;;;;;;5009620;28;20232;-66
2024/01/29 08:34:51;;;;;;;27.37;12.93;;;0.50;99.90;;;;;;5002970;28;20611;-66
2024/01/29 08:37:20;;;;;;;19.53;12.67;;;0.50;99.90;;;;;;5011340;28;20318;-66
2024/01/29 08:39:47;;;;;;;22.27;12.20;;;0.80;99.90;;;;;;5011148;28;20201;-66
2024/01/29 08:42:17;;;;;;;30.53;15.53;;;0.80;99.90;;;;;;5013264;28;20226;-66
2024/01/29 08:44:46;;;;;;;25.10;14.97;;;0.90;99.90;;;;;;5023365;28;20201;-66
2024/01/29 08:47:17;;;;;;;18.50;12.17;;;0.80;99.90;;;;;;5015014;28;20312;-66
2024/01/29 08:49:44;;;;;;;27.83;14.50;;;0.90;99.90;;;;;;5015000;28;20208;-66
2024/01/29 08:52:14;;;;;;;43.80;13.37;;;0.70;99.90;;;;;;5011754;28;20204;-66
2024/01/29 08:54:42;;;;;;;21.50;12.17;;;;;;;;;;5014975;28;20205;-67
2024/01/29 08:57:09;;;;;;;28.30;14.30;;;0.80;99.90;;;;;;5014959;28;20231;-66
2024/01/29 08:59:36;;;;;;;25.00;14.50;;;0.90;99.90;;;;;;5015173;28;20212;-66
2024/01/29 09:02:05;;;;;;;32.37;15.73;;;1.10;99.90;;;;;;5014364;28;20221;-66
2024/01/29 09:04:32;;;;;;;31.47;17.10;;;1.10;99.90;;;;;;5019396;28;20212;-66
2024/01/29 09:06:59;;;;;;;28.47;15.13;;;1.00;99.90;;;;;;5014976;28;20239;-67
2024/01/29 09:09:26;;;;;;;54.73;18.00;;;1.20;99.90;;;;;;5013092;28;20204;-67
2024/01/29 09:11:53;;;;;;;29.17;16.80;;;1.20;99.90;;;;;;5015280;28;20243;-66
2024/01/29 09:14:21;;;;;;;30.63;16.43;;;1.20;99.90;;;;;;5015409;28;20210;-66
2024/01/29 09:16:48;;;;;;;21.53;14.27;;;1.40;99.90;;;;;;5013566;28;20301;-65
2024/01/29 09:19:19;;;;;;;21.00;13.00;;;1.50;99.90;;;;;;5014976;28;20267;-70
2024/01/29 09:21:48;;;;;;;23.03;12.57;;;1.50;99.90;;;;;;5021663;28;20224;-68
2024/01/29 09:24:17;;;;;;;24.77;14.27;;;1.70;99.90;;;;;;5017554;28;20205;-69
2024/01/29 09:26:44;;;;;;;25.03;14.50;;;1.80;99.90;;;;;;5015788;28;20223;-69
2024/01/29 09:29:11;;;;;;;21.10;12.27;;;1.60;99.90;;;;;;5007708;28;20264;-63
2024/01/29 09:31:38;;;;;;;24.57;13.73;;;1.70;99.90;;;;;;5012894;28;20210;-62
2024/01/29 09:34:05;;;;;;;20.70;13.43;;;1.80;99.90;;;;;;5013423;28;20670;-68
2024/01/29 09:36:35;;;;;;;19.13;13.13;;;2.00;99.90;;;;;;5014247;28;20204;-64
2024/01/29 09:39:02;;;;;;;18.40;12.43;;;2.00;99.90;;;;;;5014162;28;20637;-66
2024/01/29 09:41:34;;;;;;;17.87;12.77;;;2.10;99.90;;;;;;5012988;28;20714;-66
2024/01/29 09:44:05;;;;;;;19.70;12.03;;;2.30;99.90;;;;;;5006935;28;20306;-63
2024/01/29 09:46:34;;;;;;;18.03;11.23;;;2.60;99.90;;;;;;5013768;28;20204;-68
2024/01/29 09:49:01;;;;;;;18.57;11.47;;;2.90;99.90;;;;;;5013987;28;20776;-69
2024/01/29 09:51:29;;;;;;;14.70;10.63;;;2.70;99.90;;;;;;5013295;28;20200;-68
2024/01/29 09:53:59;;;;;;;14.97;10.70;;;2.50;99.90;;;;;;5010529;28;20251;-68
2024/01/29 09:56:27;;;;;;;15.67;10.80;;;2.60;99.90;;;;;;5013399;28;20765;-65
2024/01/29 09:58:54;;;;;;;19.43;12.00;;;2.60;99.90;;;;;;5017515;28;20203;-66
2024/01/29 10:01:23;;;;;;;14.87;11.20;;;2.80;99.90;;;;;;5013912;28;20227;-66
2024/01/29 10:03:50;;;;;;;18.83;12.90;;;2.80;99.90;;;;;;5013548;28;20673;-70
2024/01/29 10:06:17;;;;;;;15.63;11.70;;;3.00;99.90;;;;;;5013661;28;20289;-65
2024/01/29 10:08:46;;;;;;;19.33;12.17;;;2.80;99.90;;;;;;5013572;28;20353;-65
2024/01/29 10:11:16;;;;;;;17.50;11.30;;;2.90;99.90;;;;;;5013527;28;20741;-65
2024/01/29 10:13:43;;;;;;;19.17;13.30;;;3.00;99.90;;;;;;5010396;28;20297;-65
2024/01/29 10:16:10;;;;;;;24.20;15.40;;;3.00;99.90;;;;;;5015841;28;20227;-64
2024/01/29 10:18:37;;;;;;;22.37;12.70;;;3.10;99.90;;;;;;5014665;28;20800;-65
2024/01/29 10:21:06;;;;;;;21.10;12.77;;;3.10;99.90;;;;;;5013294;28;20251;-65
2024/01/29 10:23:33;;;;;;;23.07;13.83;;;3.10;99.90;;;;;;5012376;28;20215;-65
2024/01/29 10:26:01;;;;;;;21.73;14.07;;;;;;;;;;5010561;28;20205;-65
2024/01/29 10:28:30;;;;;;;22.87;13.53;;;3.40;99.90;;;;;;5013345;28;20256;-65
2024/01/29 10:30:58;;;;;;;20.33;12.43;;;3.50;99.90;;;;;;5012881;28;20206;-65
2024/01/29 10:33:25;;;;;;;20.97;12.47;;;3.30;99.90;;;;;;5019964;28;20250;-64
2024/01/29 10:35:52;;;;;;;21.30;13.73;;;3.20;99.90;;;;;;5010306;28;20205;-65
2024/01/29 10:38:22;;;;;;;20.50;12.83;;;3.10;99.90;;;;;;5020357;28;20716;-67
2024/01/29 10:40:50;;;;;;;20.37;12.97;;;3.20;99.90;;;;;;5021813;28;20283;-67
2024/01/29 10:43:19;;;;;;;21.57;13.60;;;3.20;99.90;;;;;;5023255;28;20204;-68
2024/01/29 10:45:52;;;;;;;20.07;12.87;;;3.20;99.90;;;;;;5011324;28;20228;-67
2024/01/29 10:48:22;;;;;;;21.07;13.07;;;3.00;99.90;;;;;;5020225;28;20221;-69
2024/01/29 10:50:49;;;;;;;20.80;14.03;;;3.10;99.90;;;;;;5019296;28;20197;-68
2024/01/29 10:53:17;;;;;;;25.50;14.90;;;3.30;99.90;;;;;;5017160;28;20668;-72
2024/01/29 10:55:45;;;;;;;22.90;13.93;;;3.30;99.90;;;;;;5021025;28;20208;-69
2024/01/29 10:58:14;;;;;;;18.83;12.30;;;3.50;99.90;;;;;;5019958;28;20316;-70
2024/01/29 11:00:42;;;;;;;19.53;12.03;;;3.70;99.90;;;;;;5016006;28;20288;-66
2024/01/29 11:03:12;;;;;;;17.93;11.87;;;3.40;99.90;;;;;;5014432;28;20232;-68
2024/01/29 11:05:41;;;;;;;22.60;15.52;;;3.60;99.90;;;;;;5018949;28;20461;-67
2024/01/29 11:08:13;;;;;;;20.53;13.93;;;3.70;99.90;;;;;;5015203;28;20648;-67
2024/01/29 11:10:40;;;;;;;20.63;13.20;;;3.40;99.90;;;;;;5013609;28;20275;-67
2024/01/29 11:13:11;;;;;;;19.20;13.33;;;3.50;99.90;;;;;;5021540;28;20204;-71
2024/01/29 11:15:41;;;;;;;23.17;15.40;;;3.30;99.90;;;;;;5020999;28;20205;-67
2024/01/29 11:18:08;;;;;;;32.05;21.02;;;3.30;99.90;;;;;;5014254;28;20441;-67
2024/01/29 11:20:39;;;;;;;25.57;16.60;;;3.50;99.90;;;;;;5016971;28;20213;-67
2024/01/29 11:23:06;;;;;;;26.40;16.03;;;;;;;;;;5017963;28;20231;-67
2024/01/29 11:25:33;;;;;;;22.37;13.63;;;3.30;99.90;;;;;;5009582;28;20284;-69
2024/01/29 11:28:01;;;;;;;21.33;12.97;;;3.60;99.90;;;;;;5018278;28;20643;-70
2024/01/29 11:30:29;;;;;;;20.37;14.03;;;3.70;99.90;;;;;;5018460;28;20650;-68
2024/01/29 11:33:10;;;;;;;16.10;11.73;;;3.90;99.90;;;;;;5018824;28;20200;-69
2024/01/29 11:35:39;;;;;;;18.40;12.80;;;4.10;99.90;;;;;;5010760;28;20232;-68
2024/01/29 11:38:07;;;;;;;19.93;13.03;;;3.90;99.90;;;;;;5013899;28;20275;-67
2024/01/29 11:40:36;;;;;;;16.50;11.63;;;;;;;;;;5008030;28;20251;-66
2024/01/29 11:43:04;;;;;;;17.27;11.97;;;;;;;;;;5010638;28;20221;-66
2024/01/29 11:45:31;;;;;;;19.77;11.90;;;;;;;;;;5019539;28;20209;-66
2024/01/29 11:47:59;;;;;;;18.67;12.03;;;;;;;;;;5004222;28;20218;-66
2024/01/29 11:50:26;;;;;;;22.77;13.03;;;;;;;;;;5011785;28;20312;-66
2024/01/29 11:52:55;;;;;;;17.33;11.87;;;4.10;99.90;;;;;;5010117;28;20193;-66
2024/01/29 11:55:22;;;;;;;19.07;12.63;;;4.30;99.90;;;;;;5006121;28;20211;-66
2024/01/29 11:57:53;;;;;;;20.47;12.83;;;;;;;;;;5011276;28;20279;-66
2024/01/29 12:00:20;;;;;;;18.67;11.83;;;3.90;99.90;;;;;;5012018;28;20284;-66
2024/01/29 12:02:48;;;;;;;21.63;13.83;;;;;;;;;;5011101;28;20236;-69
2024/01/29 12:05:16;;;;;;;14.87;11.17;;;;;;;;;;5011668;28;20231;-68
2024/01/29 12:07:45;;;;;;;21.40;13.13;;;4.20;99.90;;;;;;5009121;28;20275;-69
2024/01/29 12:10:14;;;;;;;23.80;12.57;;;;;;;;;;5019709;28;20332;-66
2024/01/29 12:12:41;;;;;;;21.73;13.53;;;;;;;;;;5016214;28;20698;-65
2024/01/29 12:15:10;;;;;;;18.67;12.73;;;4.40;99.90;;;;;;5011305;28;20248;-67
2024/01/29 12:17:38;;;;;;;20.33;12.80;;;;;;;;;;4992422;28;20246;-65
2024/01/29 12:20:08;;;;;;;20.97;13.87;;;4.10;99.90;;;;;;4995113;28;20245;-67
2024/01/29 12:22:35;;;;;;;21.97;14.60;;;;;;;;;;4986907;28;20240;-66
2024/01/29 12:25:03;;;;;;;17.77;13.13;;;;;;;;;;4991250;28;20663;-67
2024/01/29 12:27:32;;;;;;;20.80;13.30;;;;;;;;;;4992717;28;20225;-66
2024/01/29 12:29:59;;;;;;;19.20;12.93;;;;;;;;;;4996101;28;20241;-73
2024/01/29 12:32:26;;;;;;;20.23;14.23;;;4.10;99.90;;;;;;4995347;28;20273;-71
2024/01/29 12:34:53;;;;;;;20.47;12.67;;;4.20;99.90;;;;;;4992430;28;20280;-67
2024/01/29 12:37:21;;;;;;;20.77;13.47;;;4.20;99.90;;;;;;4993067;28;20231;-68
2024/01/29 12:39:53;;;;;;;20.60;13.37;;;4.20;99.90;;;;;;4990005;28;20199;-68
2024/01/29 12:42:20;;;;;;;23.97;13.07;;;4.10;99.90;;;;;;4975746;28;20315;-66
2024/01/29 12:44:51;;;;;;;18.30;12.37;;;4.40;99.90;;;;;;4978729;28;20206;-67
2024/01/29 12:47:19;;;;;;;20.50;12.63;;;4.30;99.90;;;;;;4980653;28;20222;-67
2024/01/29 12:49:48;;;;;;;19.10;13.37;;;4.50;99.90;;;;;;4993619;28;20209;-66
2024/01/29 12:52:19;;;;;;;16.97;11.87;;;4.40;99.90;;;;;;4975934;28;20211;-65